Time;durP1;ratioP1;P1;durP2;ratioP2;P2;SDS_P1;SDS_P2;PMS_P1;PMS_P2;Temp;Humidity;BMP_temperature;BMP_pressure;BME280_temperature;BME280_humidity;BME280_pressure;Samples;Min_cycle;Max_cycle;Signal;HPM_P1;HPM_P2
2022/12/18 00:00:39;;;;;;;180.43;60.07;;;;;;;;;;4959278;28;20117;-66
2022/12/18 00:03:06;;;;;;;169.17;57.40;;;;;;;;;;4959100;28;20374;-67
2022/12/18 00:05:32;;;;;;;171.30;60.33;;;;;;;;;;4959555;28;20034;-66
2022/12/18 00:07:57;;;;;;;151.37;58.03;;;;;;;;;;4957594;28;20338;-66
2022/12/18 00:10:22;;;;;;;150.03;51.87;;;;;;;;;;4959600;28;20038;-66
2022/12/18 00:12:50;;;;;;;166.07;55.50;;;;;;;;;;4958849;28;20146;-66
2022/12/18 00:15:15;;;;;;;150.63;51.53;;;;;;;;;;4941783;28;20331;-67
2022/12/18 00:17:40;;;;;;;171.60;61.27;;;;;;;;;;4959059;28;20153;-67
2022/12/18 00:20:09;;;;;;;175.70;62.50;;;;;;;;;;4941999;28;20039;-66
2022/12/18 00:22:34;;;;;;;162.03;54.57;;;;;;;;;;4959410;28;20457;-66
2022/12/18 00:24:59;;;;;;;168.33;58.10;;;;;;;;;;4941513;28;20522;-66
2022/12/18 00:27:25;;;;;;;167.83;56.73;;;;;;;;;;4941614;28;20035;-66
2022/12/18 00:29:50;;;;;;;166.30;59.23;;;;;;;;;;4941357;28;20045;-67
2022/12/18 00:32:16;;;;;;;173.47;58.33;;;;;;;;;;4941522;28;20030;-66
2022/12/18 00:34:42;;;;;;;161.93;55.67;;;;;;;;;;4959436;28;20027;-66
2022/12/18 00:37:07;;;;;;;146.03;49.13;;;;;;;;;;4957671;28;20056;-67
2022/12/18 00:39:33;;;;;;;164.77;51.53;;;;;;;;;;4959195;28;20362;-68
2022/12/18 00:44:42;;;;;;;141.23;45.83;;;;;;;;;;4944032;28;20034;-66
2022/12/18 00:47:07;;;;;;;144.50;46.53;;;;;;;;;;4959069;28;20031;-66
2022/12/18 00:49:33;;;;;;;166.40;54.13;;;;;;;;;;4958226;28;20030;-66
2022/12/18 00:52:00;;;;;;;161.37;51.37;;;;;;;;;;4959147;28;20035;-66
2022/12/18 00:54:26;;;;;;;159.97;52.07;;;;;;;;;;4958877;28;20034;-68
2022/12/18 00:56:51;;;;;;;155.03;50.33;;;;;;;;;;4958932;28;20645;-66
2022/12/18 00:59:17;;;;;;;155.40;51.83;;;;;;;;;;4958989;28;20101;-67
2022/12/18 01:01:43;;;;;;;157.50;51.63;;;;;;;;;;4958852;28;20039;-66
2022/12/18 01:04:08;;;;;;;150.43;50.17;;;;;;;;;;4959118;28;20039;-67
2022/12/18 01:06:34;;;;;;;154.10;49.83;;;;;;;;;;4959045;28;20031;-66
2022/12/18 01:09:00;;;;;;;150.13;50.47;;;;;;;;;;4958390;28;20034;-68
2022/12/18 01:11:25;;;;;;;150.77;47.83;;;;;;;;;;4958803;28;20046;-68
2022/12/18 01:13:52;;;;;;;152.57;49.03;;;;;;;;;;4941094;28;20133;-66
2022/12/18 01:16:20;;;;;;;159.27;54.03;;;;;;;;;;4958921;28;20375;-67
2022/12/18 01:18:45;;;;;;;161.57;53.73;;;;;;;;;;4958604;28;20035;-66
2022/12/18 01:21:15;;;;;;;156.23;52.43;;;;;;;;;;4958657;28;20930;-66
2022/12/18 01:23:40;;;;;;;150.13;50.20;;;;;;;;;;4958854;28;20038;-67
2022/12/18 01:26:09;;;;;;;153.13;50.77;;;;;;;;;;4958613;28;20026;-67
2022/12/18 01:28:35;;;;;;;158.13;54.67;;;;;;;;;;4958722;28;20034;-67
2022/12/18 01:31:10;;;;;;;152.40;51.37;;;;;;;;;;4941292;28;20042;-67
2022/12/18 01:33:36;;;;;;;164.63;52.73;;;;;;;;;;4958301;28;20452;-67
2022/12/18 01:36:01;;;;;;;141.97;51.20;;;;;;;;;;4960162;28;20065;-66
2022/12/18 01:38:28;;;;;;;137.93;48.07;;;;;;;;;;4961434;28;20039;-67
2022/12/18 01:40:57;;;;;;;145.27;48.03;;;;;;;;;;4944633;28;20408;-67
2022/12/18 01:43:22;;;;;;;147.33;50.73;;;;;;;;;;4943926;28;20480;-67
2022/12/18 01:45:47;;;;;;;134.33;50.27;;;;;;;;;;4961469;28;20041;-67
2022/12/18 01:48:15;;;;;;;146.07;49.90;;;;;;;;;;4961471;28;20034;-67
2022/12/18 01:50:43;;;;;;;131.43;44.67;;;;;;;;;;4961328;28;20111;-66
2022/12/18 01:53:22;;;;;;;122.50;42.87;;;;;;;;;;4957742;28;20720;-66
2022/12/18 01:55:58;;;;;;;133.13;46.60;;;;;;;;;;4942763;28;20403;-67
2022/12/18 01:58:36;;;;;;;141.27;48.73;;;;;;;;;;4944069;28;20035;-68
2022/12/18 02:01:02;;;;;;;123.50;45.27;;;;;;;;;;4944121;28;20034;-66
2022/12/18 02:03:28;;;;;;;133.77;48.43;;;;;;;;;;4944151;28;20066;-66
2022/12/18 02:06:02;;;;;;;145.50;50.03;;;;;;;;;;4940693;28;20034;-66
2022/12/18 02:08:43;;;;;;;140.40;47.77;;;;;;;;;;4943561;28;20061;-66
2022/12/18 02:11:17;;;;;;;138.97;47.43;;;;;;;;;;4944126;28;20042;-68
2022/12/18 02:13:51;;;;;;;147.53;50.53;;;;;;;;;;4943601;28;20039;-66
2022/12/18 02:16:19;;;;;;;140.60;48.67;;;;;;;;;;4943518;28;20523;-66
2022/12/18 02:18:48;;;;;;;149.53;50.83;;;;;;;;;;4957102;28;20034;-67
2022/12/18 02:21:32;;;;;;;160.13;53.37;;;;;;;;;;4961678;28;20031;-67
2022/12/18 02:24:00;;;;;;;153.23;53.07;;;;;;;;;;4960963;28;20035;-67
2022/12/18 02:26:29;;;;;;;153.00;52.43;;;;;;;;;;4960622;28;20572;-67
2022/12/18 02:29:20;;;;;;;158.03;52.87;;;;;;;;;;4961635;28;20090;-67
2022/12/18 02:31:49;;;;;;;151.13;47.47;;;;;;;;;;4945423;28;20463;-67
2022/12/18 02:34:16;;;;;;;146.60;47.70;;;;;;;;;;4960827;28;20704;-67
2022/12/18 02:36:44;;;;;;;166.80;55.17;;;;;;;;;;4960988;28;20038;-67
2022/12/18 02:39:11;;;;;;;154.73;51.60;;;;;;;;;;4942993;28;20035;-67
2022/12/18 02:41:37;;;;;;;177.30;53.27;;;;;;;;;;4960418;28;20039;-67
2022/12/18 02:44:06;;;;;;;174.33;57.63;;;;;;;;;;4961205;28;20045;-67
2022/12/18 02:46:36;;;;;;;199.60;59.40;;;;;;;;;;4959505;28;20140;-67
2022/12/18 02:49:20;;;;;;;237.13;66.20;;;;;;;;;;4959585;28;20064;-67
2022/12/18 02:51:53;;;;;;;186.43;63.97;;;;;;;;;;4959684;28;20290;-68
2022/12/18 02:54:27;;;;;;;192.63;65.17;;;;;;;;;;4959937;28;20048;-67
2022/12/18 02:56:57;;;;;;;163.18;53.92;;;;;;;;;;4942494;28;20054;-67
2022/12/18 02:59:44;;;;;;;145.23;47.20;;;;;;;;;;4959963;28;20038;-67
2022/12/18 03:02:17;;;;;;;147.93;49.70;;;;;;;;;;4958580;28;20837;-67
2022/12/18 03:05:05;;;;;;;149.00;48.33;;;;;;;;;;4942504;28;20067;-67
2022/12/18 03:07:44;;;;;;;153.33;48.93;;;;;;;;;;4960037;28;20346;-67
2022/12/18 03:10:15;;;;;;;154.53;52.30;;;;;;;;;;4959608;28;20051;-68
2022/12/18 03:12:47;;;;;;;191.63;60.37;;;;;;;;;;4959997;28;20040;-67
2022/12/18 03:15:16;;;;;;;355.03;68.70;;;;;;;;;;4959461;28;20043;-67
2022/12/18 03:17:46;;;;;;;387.52;69.43;;;;;;;;;;4959385;28;20550;-67
2022/12/18 03:20:17;;;;;;;256.83;64.20;;;;;;;;;;4959911;28;20043;-67
2022/12/18 03:22:44;;;;;;;229.43;66.03;;;;;;;;;;4959588;28;20042;-67
2022/12/18 03:25:12;;;;;;;174.50;57.23;;;;;;;;;;4960159;28;20471;-68
2022/12/18 03:27:41;;;;;;;158.50;52.50;;;;;;;;;;4959358;28;20038;-68
2022/12/18 03:30:09;;;;;;;157.57;53.97;;;;;;;;;;4959739;28;20054;-67
2022/12/18 03:32:49;;;;;;;151.60;53.43;;;;;;;;;;4959914;28;20039;-67
2022/12/18 03:35:18;;;;;;;228.03;55.30;;;;;;;;;;4960296;28;20119;-67
2022/12/18 03:37:43;;;;;;;165.80;54.13;;;;;;;;;;5025345;28;20434;-69
2022/12/18 03:40:09;;;;;;;153.67;52.30;;;;;;;;;;4942749;28;20142;-68
2022/12/18 03:42:51;;;;;;;142.90;50.73;;;;;;;;;;4959793;28;20026;-68
2022/12/18 03:45:20;;;;;;;140.95;53.65;;;;;;;;;;4959208;28;20456;-67
2022/12/18 03:47:53;;;;;;;247.20;63.63;;;;;;;;;;4959161;28;20034;-68
2022/12/18 03:50:22;;;;;;;189.03;60.20;;;;;;;;;;4941821;28;20839;-67
2022/12/18 03:52:49;;;;;;;216.57;60.27;;;;;;;;;;4959430;28;20258;-68
2022/12/18 03:55:15;;;;;;;250.87;66.07;;;;;;;;;;4959588;28;20058;-67
2022/12/18 03:57:42;;;;;;;407.47;76.00;;;;;;;;;;4959329;28;20042;-66
2022/12/18 04:00:09;;;;;;;232.17;64.57;;;;;;;;;;4959184;28;20041;-67
2022/12/18 04:02:39;;;;;;;429.10;65.63;;;;;;;;;;4959223;28;20091;-70
2022/12/18 04:05:08;;;;;;;278.63;67.70;;;;;;;;;;4958823;28;20034;-67
2022/12/18 04:07:36;;;;;;;267.87;69.90;;;;;;;;;;4959039;28;20038;-68
2022/12/18 04:10:01;;;;;;;207.67;63.23;;;;;;;;;;4942332;28;20105;-68
2022/12/18 04:12:29;;;;;;;232.57;62.07;;;;;;;;;;4958842;28;20448;-67
2022/12/18 04:14:58;;;;;;;358.10;64.93;;;;;;;;;;4958898;28;20030;-67
2022/12/18 04:17:23;;;;;;;255.30;58.37;;;;;;;;;;4959414;28;20054;-68
2022/12/18 04:19:51;;;;;;;182.00;57.33;;;;;;;;;;4942175;28;20052;-67
2022/12/18 04:22:16;;;;;;;137.77;51.83;;;;;;;;;;4958950;28;20804;-67
2022/12/18 04:24:44;;;;;;;143.33;51.23;;;;;;;;;;4942082;28;20037;-67
2022/12/18 04:27:16;;;;;;;139.57;50.80;;;;;;;;;;4942549;28;20061;-67
2022/12/18 04:29:44;;;;;;;127.23;51.13;;;;;;;;;;4942150;28;20318;-67
2022/12/18 04:32:10;;;;;;;128.60;48.43;;;;;;;;;;4959598;28;20069;-67
2022/12/18 04:34:35;;;;;;;122.60;46.40;;;;;;;;;;4959569;28;20083;-67
2022/12/18 04:37:01;;;;;;;112.37;46.70;;;;;;;;;;4959405;28;20023;-68
2022/12/18 04:39:26;;;;;;;106.40;41.03;;;;;;;;;;4959070;28;20062;-68
2022/12/18 04:41:51;;;;;;;86.30;37.37;;;;;;;;;;4941521;28;20136;-68
2022/12/18 04:44:17;;;;;;;100.27;40.43;;;;;;;;;;4959419;28;20033;-68
2022/12/18 04:46:42;;;;;;;110.27;44.07;;;;;;;;;;4958735;28;20030;-68
2022/12/18 04:49:10;;;;;;;108.67;41.67;;;;;;;;;;4958260;28;20218;-67
2022/12/18 04:51:40;;;;;;;110.40;41.57;;;;;;;;;;4958606;28;20157;-67
2022/12/18 04:54:05;;;;;;;99.93;40.23;;;;;;;;;;4958423;28;20070;-67
2022/12/18 04:56:31;;;;;;;93.10;38.67;;;;;;;;;;4958484;28;20148;-67
2022/12/18 04:58:56;;;;;;;102.03;38.13;;;;;;;;;;4958306;28;20492;-68
2022/12/18 05:01:22;;;;;;;103.70;42.40;;;;;;;;;;4959012;28;20429;-68
2022/12/18 05:03:47;;;;;;;109.83;44.23;;;;;;;;;;4958202;28;20552;-68
2022/12/18 05:06:13;;;;;;;116.53;50.23;;;;;;;;;;4958684;28;20050;-67
2022/12/18 05:08:38;;;;;;;129.07;54.97;;;;;;;;;;4958007;28;20057;-68
2022/12/18 05:11:05;;;;;;;120.27;52.60;;;;;;;;;;4960389;28;20343;-67
2022/12/18 05:13:31;;;;;;;111.67;47.13;;;;;;;;;;4959979;28;20731;-67
2022/12/18 05:15:56;;;;;;;126.13;51.03;;;;;;;;;;4945173;28;20053;-67
2022/12/18 05:18:24;;;;;;;110.53;44.30;;;;;;;;;;4944183;28;20041;-67
2022/12/18 05:20:52;;;;;;;119.57;50.77;;;;;;;;;;4962286;28;20039;-67
2022/12/18 05:23:18;;;;;;;130.47;52.73;;;;;;;;;;5029150;28;20500;-68
2022/12/18 05:26:03;;;;;;;108.57;48.03;;;;;;;;;;4961872;28;20766;-67
2022/12/18 05:28:29;;;;;;;113.73;53.63;;;;;;;;;;4961821;28;20039;-67
2022/12/18 05:30:55;;;;;;;101.03;49.17;;;;;;;;;;4962172;28;20625;-67
2022/12/18 05:33:21;;;;;;;99.87;45.97;;;;;;;;;;4962164;28;20030;-67
2022/12/18 05:35:51;;;;;;;98.57;44.20;;;;;;;;;;4961647;28;20471;-67
2022/12/18 05:38:19;;;;;;;101.82;48.67;;;;;;;;;;4962005;28;20557;-67
2022/12/18 05:40:45;;;;;;;109.40;47.90;;;;;;;;;;5028416;28;20085;-67
2022/12/18 05:43:13;;;;;;;105.23;51.87;;;;;;;;;;4961694;28;20054;-67
2022/12/18 05:45:39;;;;;;;114.33;50.90;;;;;;;;;;4961918;28;20034;-67
2022/12/18 05:48:05;;;;;;;106.57;48.73;;;;;;;;;;4961029;28;20180;-68
2022/12/18 05:50:30;;;;;;;99.03;47.83;;;;;;;;;;4961465;28;20034;-67
2022/12/18 05:52:55;;;;;;;109.27;55.93;;;;;;;;;;4960694;28;20454;-66
2022/12/18 05:55:21;;;;;;;114.47;59.80;;;;;;;;;;4961224;28;20057;-68
2022/12/18 05:57:46;;;;;;;123.73;61.40;;;;;;;;;;4943886;28;20129;-68
2022/12/18 06:00:12;;;;;;;124.87;67.23;;;;;;;;;;4961065;28;20095;-69
2022/12/18 06:02:46;;;;;;;115.90;54.50;;;;;;;;;;4960593;28;20053;-67
2022/12/18 06:05:11;;;;;;;109.13;50.93;;;;;;;;;;4960976;28;20038;-67
2022/12/18 06:07:38;;;;;;;106.03;52.20;;;;;;;;;;4944005;28;20044;-67
2022/12/18 06:10:04;;;;;;;100.90;50.13;;;;;;;;;;4961198;28;20414;-67
2022/12/18 06:12:29;;;;;;;97.93;46.30;;;;;;;;;;4960378;28;20488;-67
2022/12/18 06:14:55;;;;;;;99.27;45.43;;;;;;;;;;4943972;28;20030;-66
2022/12/18 06:17:22;;;;;;;105.87;49.90;;;;;;;;;;4944012;28;20480;-67
2022/12/18 06:19:48;;;;;;;93.37;44.27;;;;;;;;;;4927236;28;20481;-67
2022/12/18 06:22:13;;;;;;;101.07;47.83;;;;;;;;;;4961367;28;20037;-67
2022/12/18 06:24:38;;;;;;;99.83;42.83;;;;;;;;;;4960641;28;20484;-68
2022/12/18 06:27:06;;;;;;;93.57;43.17;;;;;;;;;;4943777;28;20250;-67
2022/12/18 06:29:31;;;;;;;96.13;42.87;;;;;;;;;;4943148;28;20441;-68
2022/12/18 06:31:57;;;;;;;93.23;42.27;;;;;;;;;;4943683;28;20412;-68
2022/12/18 06:34:22;;;;;;;88.30;38.63;;;;;;;;;;4960993;28;20272;-67
2022/12/18 06:36:49;;;;;;;96.10;38.47;;;;;;;;;;4944029;28;20455;-68
2022/12/18 06:39:15;;;;;;;84.23;36.33;;;;;;;;;;4961216;28;20375;-68
2022/12/18 06:41:40;;;;;;;84.23;37.40;;;;;;;;;;4961486;28;20776;-69
2022/12/18 06:44:08;;;;;;;86.13;37.97;;;;;;;;;;4961100;28;20576;-69
2022/12/18 06:46:33;;;;;;;81.13;38.43;;;;;;;;;;4960735;28;20108;-68
2022/12/18 06:48:58;;;;;;;83.87;42.47;;;;;;;;;;4959870;28;20707;-69
2022/12/18 06:51:24;;;;;;;92.70;43.43;;;;;;;;;;4960672;28;20049;-67
2022/12/18 06:53:51;;;;;;;85.40;39.70;;;;;;;;;;4959668;28;20414;-67
2022/12/18 06:56:17;;;;;;;79.90;36.97;;;;;;;;;;4960282;28;20088;-67
2022/12/18 06:58:43;;;;;;;75.33;35.23;;;;;;;;;;4943190;28;20038;-67
2022/12/18 07:01:10;;;;;;;79.90;37.37;;;;;;;;;;4943484;28;20564;-68
2022/12/18 07:03:38;;;;;;;80.37;35.80;;;;;;;;;;4959898;28;20073;-68
2022/12/18 07:06:03;;;;;;;77.20;34.70;;;;;;;;;;4942536;28;20797;-69
2022/12/18 07:08:30;;;;;;;79.00;34.33;;;;;;;;;;4960084;28;20096;-68
2022/12/18 07:10:56;;;;;;;80.87;33.97;;;;;;;;;;4959528;28;20615;-69
2022/12/18 07:13:21;;;;;;;79.90;34.73;;;;;;;;;;4960596;28;20035;-68
2022/12/18 07:15:47;;;;;;;79.93;36.63;;;;;;;;;;4942124;28;20208;-68
2022/12/18 07:18:12;;;;;;;79.33;35.47;;;;;;;;;;4960677;28;20120;-69
2022/12/18 07:20:37;;;;;;;79.47;36.50;;;;;;;;;;4959866;28;20096;-67
2022/12/18 07:23:03;;;;;;;76.03;34.23;;;;;;;;;;4943287;28;20393;-68
2022/12/18 07:25:34;;;;;;;76.17;33.43;;;;;;;;;;4959757;28;20041;-69
2022/12/18 07:28:03;;;;;;;73.17;31.80;;;;;;;;;;4960355;28;20034;-68
2022/12/18 07:30:30;;;;;;;77.30;34.40;;;;;;;;;;4942205;28;20179;-67
2022/12/18 07:32:56;;;;;;;70.97;31.47;;;;;;;;;;4959561;28;20484;-69
2022/12/18 07:35:21;;;;;;;68.03;32.00;;;;;;;;;;4926394;28;20169;-67
2022/12/18 07:37:51;;;;;;;65.47;31.27;;;;;;;;;;4960199;28;20103;-69
2022/12/18 07:40:18;;;;;;;61.20;29.70;;;;;;;;;;4941902;28;20041;-68
2022/12/18 07:42:46;;;;;;;64.77;29.57;;;;;;;;;;4943249;28;20382;-68
2022/12/18 07:45:11;;;;;;;61.20;28.53;;;;;;;;;;4942156;28;20488;-69
2022/12/18 07:47:36;;;;;;;58.27;28.83;;;;;;;;;;4960087;28;20131;-68
2022/12/18 07:50:02;;;;;;;63.07;30.00;;;;;;;;;;4959299;28;20041;-67
2022/12/18 07:52:27;;;;;;;54.23;26.73;;;;;;;;;;4942377;28;20180;-67
2022/12/18 07:54:55;;;;;;;56.80;26.23;;;;;;;;;;4942302;28;20579;-68
2022/12/18 07:57:21;;;;;;;50.70;26.77;;;;;;;;;;4959424;28;20068;-68
2022/12/18 07:59:46;;;;;;;54.33;26.00;;;;;;;;;;4959824;28;20396;-69
2022/12/18 08:02:11;;;;;;;54.00;26.17;;;;;;;;;;4942003;28;20038;-67
2022/12/18 08:04:37;;;;;;;58.40;27.90;;;;;;;;;;4958963;28;20053;-68
2022/12/18 08:07:04;;;;;;;53.57;26.27;;;;;;;;;;4959498;28;20426;-69
2022/12/18 08:09:29;;;;;;;55.53;25.50;;;;;;;;;;4958994;28;20026;-68
2022/12/18 08:11:55;;;;;;;49.23;25.90;;;;;;;;;;4959662;28;20046;-68
2022/12/18 08:14:20;;;;;;;52.93;24.03;;;;;;;;;;4959652;28;20382;-69
2022/12/18 08:16:46;;;;;;;50.37;25.90;;;;;;;;;;4959670;28;20038;-68
2022/12/18 08:19:11;;;;;;;45.67;25.40;;;;;;;;;;4959598;28;20045;-68
2022/12/18 08:21:39;;;;;;;46.67;24.47;;;;;;;;;;4960177;28;20035;-69
2022/12/18 08:24:05;;;;;;;47.57;23.77;;;;;;;;;;4959316;28;20435;-68
2022/12/18 08:26:31;;;;;;;44.77;23.67;;;;;;;;;;4959899;28;20034;-69
2022/12/18 08:28:57;;;;;;;39.87;22.63;;;;;;;;;;4959369;28;20176;-70
2022/12/18 08:31:25;;;;;;;45.33;23.40;;;;;;;;;;4959555;28;20393;-69
2022/12/18 08:33:54;;;;;;;41.30;21.50;;;;;;;;;;4959711;28;20042;-68
2022/12/18 08:36:19;;;;;;;42.50;21.97;;;;;;;;;;4959696;28;20038;-68
2022/12/18 08:38:45;;;;;;;40.43;21.13;;;;;;;;;;4959608;28;20160;-68
2022/12/18 08:41:11;;;;;;;42.53;22.53;;;;;;;;;;4959206;28;20048;-68
2022/12/18 08:46:25;;;;;;;37.20;20.87;;;;;;;;;;4958065;28;20042;-68
2022/12/18 08:48:51;;;;;;;38.93;22.27;;;;;;;;;;4959219;28;20060;-69
2022/12/18 08:51:17;;;;;;;39.27;21.17;;;;;;;;;;4959031;28;20107;-68
2022/12/18 08:53:42;;;;;;;43.33;22.83;;;;;;;;;;4959085;28;21393;-68
2022/12/18 08:56:07;;;;;;;41.13;22.27;;;;;;;;;;4958454;28;20135;-68
2022/12/18 08:58:32;;;;;;;36.00;20.10;;;;;;;;;;4959003;28;20496;-69
2022/12/18 09:01:05;;;;;;;36.80;20.10;;;;;;;;;;4958182;28;20034;-68
2022/12/18 09:03:32;;;;;;;35.83;19.52;;;;;;;;;;4958457;28;20030;-70
2022/12/18 09:06:00;;;;;;;33.90;19.07;;;;;;;;;;4958040;28;20033;-68
2022/12/18 09:08:26;;;;;;;32.07;18.77;;;;;;;;;;4945744;28;20031;-67
2022/12/18 09:10:51;;;;;;;31.30;18.70;;;;;;;;;;4941624;28;20049;-68
2022/12/18 09:13:19;;;;;;;36.27;19.83;;;;;;;;;;4959304;28;20137;-68
2022/12/18 09:15:49;;;;;;;35.67;19.97;;;;;;;;;;4958675;28;20579;-73
2022/12/18 09:18:15;;;;;;;35.00;19.80;;;;;;;;;;4959003;28;20034;-67
2022/12/18 09:20:43;;;;;;;34.70;20.07;;;;;;;;;;4958911;28;20041;-69
2022/12/18 09:23:08;;;;;;;29.87;18.23;;;;;;;;;;4941255;28;20427;-68
2022/12/18 09:25:35;;;;;;;35.73;20.27;;;;;;;;;;4957441;28;20038;-68
2022/12/18 09:28:05;;;;;;;34.23;21.20;;;;;;;;;;4958386;28;20034;-71
2022/12/18 09:30:33;;;;;;;37.50;21.43;;;;;;;;;;4958086;28;20461;-68
2022/12/18 09:32:58;;;;;;;33.27;20.50;;;;;;;;;;4957257;28;20502;-68
2022/12/18 09:35:23;;;;;;;30.83;19.43;;;;;;;;;;4958564;28;20418;-68
2022/12/18 09:37:48;;;;;;;33.43;18.53;;;;;;;;;;4958858;28;21879;-69
2022/12/18 09:40:15;;;;;;;33.80;19.10;;;;;;;;;;4941275;28;20216;-68
2022/12/18 09:42:45;;;;;;;30.53;17.73;;;;;;;;;;4958788;28;20058;-70
2022/12/18 09:45:14;;;;;;;39.23;21.20;;;;;;;;;;4958711;28;20129;-69
2022/12/18 09:47:40;;;;;;;41.70;22.60;;;;;;;;;;4941787;28;20027;-70
2022/12/18 09:50:27;;;;;;;36.43;20.13;;;;;;;;;;4939890;28;24373;-69
2022/12/18 09:52:54;;;;;;;33.77;20.60;;;;;;;;;;4939728;28;20113;-68
2022/12/18 09:55:34;;;;;;;39.03;21.90;;;;;;;;;;4940980;28;20183;-68
2022/12/18 09:58:06;;;;;;;39.33;25.53;;;;;;;;;;4961565;28;20114;-68
2022/12/18 10:00:32;;;;;;;37.37;21.93;;;;;;;;;;4961721;28;20054;-67
2022/12/18 10:03:17;;;;;;;39.47;23.87;;;;;;;;;;4961432;28;20037;-68
2022/12/18 10:05:44;;;;;;;39.57;23.90;;;;;;;;;;4960109;28;20049;-69
2022/12/18 10:08:16;;;;;;;38.03;23.47;;;;;;;;;;4961306;28;20053;-69
2022/12/18 10:10:44;;;;;;;40.45;24.40;;;;;;;;;;4959651;28;20045;-67
2022/12/18 10:13:44;;;;;;;38.50;24.53;;;;;;;;;;4961754;28;20382;-68
2022/12/18 10:16:10;;;;;;;36.30;22.37;;;;;;;;;;4954599;28;20035;-69
2022/12/18 10:18:54;;;;;;;38.77;24.93;;;;;;;;;;4961091;28;20041;-68
2022/12/18 10:21:23;;;;;;;42.47;25.57;;;;;;;;;;4961030;28;20030;-71
2022/12/18 10:23:56;;;;;;;36.93;23.70;;;;;;;;;;4961045;28;20113;-68
2022/12/18 10:26:24;;;;;;;44.40;27.83;;;;;;;;;;4961480;28;20571;-68
2022/12/18 10:28:51;;;;;;;40.37;25.93;;;;;;;;;;4961033;28;20536;-67
2022/12/18 10:31:18;;;;;;;38.33;24.20;;;;;;;;;;4961701;28;20042;-68
2022/12/18 10:33:46;;;;;;;38.53;23.73;;;;;;;;;;4960834;28;20183;-69
2022/12/18 10:36:11;;;;;;;36.23;24.43;;;;;;;;;;4961315;28;20066;-67
2022/12/18 10:38:37;;;;;;;42.30;24.00;;;;;;;;;;4943523;28;20670;-69
2022/12/18 10:41:11;;;;;;;36.47;21.03;;;;;;;;;;4960702;28;20095;-69
2022/12/18 10:43:40;;;;;;;42.25;22.98;;;;;;;;;;4960901;28;20023;-68
2022/12/18 10:46:08;;;;;;;35.63;22.50;;;;;;;;;;4942916;28;20520;-67
2022/12/18 10:48:35;;;;;;;34.37;22.27;;;;;;;;;;4961361;28;20069;-70
2022/12/18 10:51:02;;;;;;;34.07;22.63;;;;;;;;;;4961127;28;20467;-68
2022/12/18 10:53:29;;;;;;;35.50;21.90;;;;;;;;;;4959463;28;20044;-68
2022/12/18 10:56:00;;;;;;;35.63;20.90;;;;;;;;;;4959455;28;20478;-68
2022/12/18 10:58:28;;;;;;;35.50;20.83;;;;;;;;;;4960594;28;20438;-68
2022/12/18 11:01:04;;;;;;;34.77;21.73;;;;;;;;;;4958602;28;20077;-68
2022/12/18 11:03:35;;;;;;;34.67;21.23;;;;;;;;;;4960570;28;20031;-68
2022/12/18 11:06:05;;;;;;;33.87;20.67;;;;;;;;;;4960085;28;20035;-67
2022/12/18 11:08:30;;;;;;;36.00;21.57;;;;;;;;;;4941955;28;20433;-67
2022/12/18 11:10:56;;;;;;;36.77;22.50;;;;;;;;;;4961064;28;20049;-68
2022/12/18 11:13:23;;;;;;;39.27;24.83;;;;;;;;;;4960588;28;20058;-68
2022/12/18 11:15:51;;;;;;;38.00;22.23;;;;;;;;;;4960199;28;20401;-69
2022/12/18 11:18:34;;;;;;;38.53;22.63;;;;;;;;;;4960683;28;20353;-68
2022/12/18 11:21:10;;;;;;;36.77;24.30;;;;;;;;;;4960566;28;20499;-68
2022/12/18 11:23:36;;;;;;;38.00;24.93;;;;;;;;;;4942726;28;20181;-68
2022/12/18 11:26:04;;;;;;;41.47;29.50;;;;;;;;;;4960101;28;20988;-69
2022/12/18 11:28:35;;;;;;;40.73;28.00;;;;;;;;;;4943290;28;20091;-68
2022/12/18 11:31:18;;;;;;;41.63;25.13;;;;;;;;;;4942335;28;20034;-67
2022/12/18 11:34:25;;;;;;;37.83;22.03;;;;;;;;;;4960366;28;20302;-69
2022/12/18 11:36:50;;;;;;;37.10;21.20;;;;;;;;;;4978558;28;20041;-68
2022/12/18 11:39:20;;;;;;;37.80;22.97;;;;;;;;;;4963119;28;20026;-67
2022/12/18 11:42:11;;;;;;;48.03;25.10;;;;;;;;;;4952852;28;20023;-68
2022/12/18 11:44:51;;;;;;;37.73;23.53;;;;;;;;;;4960614;28;20201;-68
2022/12/18 11:47:36;;;;;;;38.10;24.37;;;;;;;;;;4960197;28;20041;-68
2022/12/18 11:50:02;;;;;;;34.10;22.07;;;;;;;;;;4960360;28;20131;-67
2022/12/18 11:52:37;;;;;;;32.80;21.77;;;;;;;;;;4960303;28;20046;-68
2022/12/18 11:55:29;;;;;;;32.03;20.57;;;;;;;;;;4959910;28;20030;-68
2022/12/18 11:58:03;;;;;;;31.25;20.30;;;;;;;;;;4959427;28;20070;-68
2022/12/18 12:00:28;;;;;;;31.83;20.60;;;;;;;;;;4960063;28;20561;-69
2022/12/18 12:03:05;;;;;;;31.00;19.70;;;;;;;;;;4959653;28;20023;-69
2022/12/18 12:05:44;;;;;;;36.37;21.47;;;;;;;;;;4959313;28;20134;-67
2022/12/18 12:08:09;;;;;;;31.93;20.37;;;;;;;;;;4959471;28;20569;-67
2022/12/18 12:10:43;;;;;;;30.47;19.37;;;;;;;;;;4959857;28;20034;-67
2022/12/18 12:13:18;;;;;;;32.23;20.20;;;;;;;;;;4959402;28;20034;-68
2022/12/18 12:15:49;;;;;;;33.63;21.73;;;;;;;;;;4941618;28;20498;-68
2022/12/18 12:18:29;;;;;;;28.98;19.20;;;;;;;;;;4959471;28;20361;-66
2022/12/18 12:20:54;;;;;;;30.77;20.37;;;;;;;;;;4959651;28;20023;-68
2022/12/18 12:23:24;;;;;;;31.33;20.80;;;;;;;;;;4959959;28;20605;-67
2022/12/18 12:25:53;;;;;;;27.20;17.80;;;;;;;;;;4959828;28;20030;-68
2022/12/18 12:28:36;;;;;;;27.20;16.70;;;;;;;;;;4941650;28;20055;-67
2022/12/18 12:31:10;;;;;;;26.83;17.37;;;;;;;;;;4959313;28;20038;-68
2022/12/18 12:33:41;;;;;;;28.17;17.57;;;;;;;;;;4959105;28;20031;-67
2022/12/18 12:36:15;;;;;;;30.08;16.98;;;;;;;;;;4959469;28;20030;-67
2022/12/18 12:39:03;;;;;;;30.33;17.43;;;;;;;;;;4941299;28;20471;-66
2022/12/18 12:44:23;;;;;;;29.23;17.47;;;;;;;;;;4958706;28;20135;-68
2022/12/18 12:46:50;;;;;;;27.00;16.77;;;;;;;;;;4959307;28;20084;-68
2022/12/18 12:49:17;;;;;;;28.33;17.40;;;;;;;;;;4959667;28;21004;-68
2022/12/18 12:51:49;;;;;;;31.20;18.40;;;;;;;;;;4959209;28;20346;-67
2022/12/18 12:54:17;;;;;;;31.60;17.75;;;;;;;;;;4959205;28;20042;-67
2022/12/18 12:56:45;;;;;;;26.87;17.20;;;;;;;;;;4958757;28;20449;-66
2022/12/18 12:59:24;;;;;;;34.13;19.10;;;;;;;;;;4958573;28;20590;-68
2022/12/18 13:01:57;;;;;;;29.43;17.57;;;;;;;;;;4958865;28;20149;-69
2022/12/18 13:04:40;;;;;;;29.77;17.57;;;;;;;;;;4941534;28;20034;-67
2022/12/18 13:07:26;;;;;;;25.97;15.77;;;;;;;;;;4958515;28;20058;-69
2022/12/18 13:10:10;;;;;;;33.47;18.97;;;;;;;;;;4958928;28;20175;-68
2022/12/18 13:12:59;;;;;;;29.00;18.03;;;;;;;;;;4958527;28;20111;-68
2022/12/18 13:15:30;;;;;;;27.90;17.30;;;;;;;;;;4959043;28;20044;-68
2022/12/18 13:18:05;;;;;;;25.97;16.60;;;;;;;;;;4940189;28;20474;-67
2022/12/18 13:20:57;;;;;;;27.13;17.43;;;;;;;;;;4958393;28;20030;-67
2022/12/18 13:23:22;;;;;;;28.03;16.13;;;;;;;;;;4959501;28;20034;-67
2022/12/18 13:25:48;;;;;;;28.53;17.17;;;;;;;;;;4959359;28;20027;-68
2022/12/18 13:28:14;;;;;;;26.27;15.63;;;;;;;;;;4958650;28;20414;-67
2022/12/18 13:30:40;;;;;;;32.23;17.27;;;;;;;;;;4941568;28;20070;-67
2022/12/18 13:33:26;;;;;;;25.60;15.07;;;;;;;;;;4961636;28;20113;-67
2022/12/18 13:35:53;;;;;;;25.07;15.73;;;;;;;;;;4948227;28;20357;-68
2022/12/18 13:38:31;;;;;;;25.43;15.67;;;;;;;;;;4961833;28;20504;-66
2022/12/18 13:41:04;;;;;;;26.77;15.53;;;;;;;;;;4943578;28;20026;-66
2022/12/18 13:43:32;;;;;;;24.30;14.87;;;;;;;;;;4960930;28;20030;-68
2022/12/18 13:46:01;;;;;;;25.90;16.47;;;;;;;;;;4943642;28;20031;-66
2022/12/18 13:48:29;;;;;;;32.27;16.27;;;;;;;;;;4961582;28;20408;-66
2022/12/18 13:50:59;;;;;;;24.63;15.20;;;;;;;;;;4942622;28;20074;-66
2022/12/18 13:53:26;;;;;;;25.97;16.00;;;;;;;;;;4945979;28;20133;-67
2022/12/18 13:55:52;;;;;;;24.40;15.43;;;;;;;;;;4955633;28;20639;-66
2022/12/18 13:58:21;;;;;;;30.83;16.37;;;;;;;;;;4941717;28;20737;-68
2022/12/18 14:00:48;;;;;;;24.07;15.87;;;;;;;;;;4940590;28;20276;-68
2022/12/18 14:03:21;;;;;;;25.98;14.88;;;;;;;;;;4943171;28;20214;-67
2022/12/18 14:05:52;;;;;;;24.33;14.70;;;;;;;;;;4942454;28;20038;-68
2022/12/18 14:08:17;;;;;;;24.17;14.80;;;;;;;;;;4942911;28;20084;-68
2022/12/18 14:10:44;;;;;;;27.40;15.83;;;;;;;;;;4924064;28;20038;-67
2022/12/18 14:13:10;;;;;;;27.30;15.95;;;;;;;;;;4923759;28;20100;-67
2022/12/18 14:15:42;;;;;;;26.07;16.13;;;;;;;;;;4908415;28;20524;-67
2022/12/18 14:18:26;;;;;;;25.67;15.13;;;;;;;;;;4943105;28;20284;-68
2022/12/18 14:20:53;;;;;;;26.90;17.47;;;;;;;;;;4942814;28;20531;-66
2022/12/18 14:23:29;;;;;;;27.50;15.83;;;;;;;;;;4942981;28;20184;-67
2022/12/18 14:25:57;;;;;;;25.47;16.20;;;;;;;;;;4942875;28;20033;-69
2022/12/18 14:28:26;;;;;;;26.93;17.50;;;;;;;;;;4943117;28;20551;-67
2022/12/18 14:30:51;;;;;;;27.17;17.47;;;;;;;;;;4922988;28;20054;-68